createdAt,value
2022-09-22T00:01:32.248Z,101342.34
2022-09-22T00:04:06.120Z,101347.63
2022-09-22T00:06:37.013Z,101349.44
2022-09-22T00:09:06.651Z,101354.75
2022-09-22T00:11:37.512Z,101345.00
2022-09-22T00:14:08.421Z,101223.78
2022-09-22T00:16:39.503Z,101130.06
2022-09-22T00:19:10.506Z,101346.81
2022-09-22T00:21:38.480Z,101221.13
2022-09-22T00:24:08.158Z,101345.91
2022-09-22T00:26:38.043Z,101345.91
2022-09-22T00:29:08.079Z,101349.44
2022-09-22T00:31:37.523Z,101296.34
2022-09-22T00:34:06.127Z,101336.22
2022-09-22T00:36:35.750Z,101230.88
2022-09-22T00:39:03.947Z,101322.94
2022-09-22T00:41:34.121Z,101325.59
2022-09-22T00:44:40.693Z,101344.16
2022-09-22T00:47:32.440Z,101338.84
2022-09-22T00:50:06.955Z,101333.56
2022-09-22T00:52:41.911Z,101331.78
2022-09-22T00:55:30.872Z,101272.53
2022-09-22T00:58:00.962Z,101316.75
2022-09-22T01:00:28.985Z,101325.63
2022-09-22T01:03:00.500Z,101330.94
2022-09-22T01:05:31.454Z,101185.81
2022-09-22T01:07:59.719Z,101324.72
2022-09-22T01:10:28.993Z,101308.78
2022-09-22T01:13:16.128Z,101325.63
2022-09-22T01:15:52.062Z,101325.59
2022-09-22T01:18:27.017Z,101326.50
2022-09-22T01:21:24.942Z,101157.50
2022-09-22T01:24:23.871Z,101314.13
2022-09-22T01:27:41.016Z,101323.84
2022-09-22T01:30:28.615Z,101322.97
2022-09-22T01:33:14.952Z,101322.06
2022-09-22T01:35:53.520Z,101319.44
2022-09-22T01:38:31.638Z,101199.09
2022-09-22T01:41:04.258Z,101092.94
2022-09-22T01:43:39.374Z,101147.75
2022-09-22T01:46:14.812Z,101309.72
2022-09-22T01:48:46.427Z,101320.34
2022-09-22T01:51:19.594Z,101172.53
2022-09-22T01:53:53.572Z,101315.91
2022-09-22T01:56:22.984Z,101306.16
2022-09-22T01:58:53.926Z,101278.72
2022-09-22T02:01:26.610Z,101308.81
2022-09-22T02:03:59.875Z,101273.41
2022-09-22T02:06:33.125Z,101178.75
2022-09-22T02:09:05.834Z,101299.97
2022-09-22T02:11:34.379Z,101280.47
2022-09-22T02:14:03.603Z,101299.09
2022-09-22T02:16:33.890Z,101238.00
2022-09-22T02:19:12.459Z,101293.78
2022-09-22T02:21:44.465Z,101282.28
2022-09-22T02:24:28.909Z,101287.59
2022-09-22T02:26:58.751Z,101151.28
2022-09-22T02:29:31.350Z,101297.31
2022-09-22T02:32:03.887Z,101145.13
2022-09-22T02:34:32.502Z,101130.06
2022-09-22T02:37:07.752Z,101289.34
2022-09-22T02:39:43.326Z,101285.78
2022-09-22T02:42:21.630Z,101176.97
2022-09-22T02:44:57.673Z,101186.72
2022-09-22T02:47:33.754Z,101199.09
2022-09-22T02:50:03.841Z,101287.59
2022-09-22T02:52:31.611Z,101285.81
2022-09-22T02:54:59.475Z,101030.13
2022-09-22T02:57:27.573Z,101275.19
2022-09-22T02:59:55.395Z,101276.06
2022-09-22T03:02:23.564Z,101276.06
2022-09-22T03:04:53.924Z,101274.31
2022-09-22T03:07:21.959Z,101269.88
2022-09-22T03:09:50.102Z,101252.19
2022-09-22T03:12:18.588Z,101269.00
2022-09-22T03:14:46.556Z,101269.00
2022-09-22T03:17:14.374Z,101264.56
2022-09-22T03:19:42.464Z,101229.16
2022-09-22T03:22:11.933Z,101137.16
2022-09-22T03:24:39.807Z,101262.78
2022-09-22T03:27:07.901Z,101257.47
2022-09-22T03:29:35.740Z,101226.50
2022-09-22T03:32:03.967Z,101250.41
2022-09-22T03:34:31.984Z,101245.97
2022-09-22T03:36:59.875Z,101232.69
2022-09-22T03:39:29.433Z,101246.84
2022-09-22T03:41:57.692Z,101248.59
2022-09-22T03:44:27.612Z,101215.84
2022-09-22T03:46:55.490Z,100822.31
2022-09-22T03:49:23.481Z,101241.56
2022-09-22T03:51:51.402Z,101250.41
2022-09-22T03:54:19.458Z,101222.06
2022-09-22T03:56:48.809Z,101207.91
2022-09-22T03:59:17.527Z,101225.59
2022-09-22T04:01:45.732Z,101236.22
2022-09-22T04:04:13.752Z,101239.78
2022-09-22T04:06:42.106Z,101252.16
2022-09-22T04:09:10.147Z,101005.31
2022-09-22T04:11:38.111Z,101244.19
2022-09-22T04:14:07.510Z,101246.84
2022-09-22T04:16:35.481Z,101244.19
2022-09-22T04:19:05.063Z,101238.88
2022-09-22T04:21:33.015Z,101233.59
2022-09-22T04:24:01.055Z,101238.03
2022-09-22T04:26:28.997Z,101009.78
2022-09-22T04:28:56.894Z,101233.59
2022-09-22T04:31:26.114Z,101154.84
2022-09-22T04:33:54.138Z,101232.69
2022-09-22T04:36:22.101Z,101209.69
2022-09-22T04:38:50.015Z,101221.22
2022-09-22T04:41:17.928Z,101226.53
2022-09-22T04:43:45.815Z,101233.59
2022-09-22T04:46:13.928Z,101231.81
2022-09-22T04:48:43.139Z,101232.72
2022-09-22T04:51:11.040Z,101191.09
2022-09-22T04:53:38.898Z,101226.50
2022-09-22T04:56:07.254Z,101228.28
2022-09-22T04:58:35.131Z,101208.78
2022-09-22T05:01:03.782Z,101227.38
2022-09-22T05:03:32.029Z,101227.38
2022-09-22T05:06:01.410Z,101216.78
2022-09-22T05:08:29.338Z,101230.06
2022-09-22T05:10:57.799Z,101103.56
2022-09-22T05:13:25.905Z,101152.19
2022-09-22T05:15:54.051Z,101072.59
2022-09-22T05:18:22.127Z,101219.44
2022-09-22T05:20:50.097Z,101233.59
2022-09-22T05:23:19.516Z,101234.47
2022-09-22T05:25:47.439Z,101236.25
2022-09-22T05:28:15.469Z,101234.47
2022-09-22T05:30:43.595Z,101244.19
2022-09-22T05:33:11.625Z,101245.09
2022-09-22T05:35:39.564Z,101241.56
2022-09-22T05:38:07.476Z,101249.53
2022-09-22T05:40:36.808Z,101074.38
2022-09-22T05:43:04.836Z,101241.53
2022-09-22T05:45:32.761Z,101227.38
2022-09-22T05:48:00.747Z,101246.84
2022-09-22T05:50:28.606Z,101248.59
2022-09-22T05:53:04.905Z,101246.81
2022-09-22T05:55:33.211Z,101246.81
2022-09-22T05:58:03.323Z,101251.25
2022-09-22T06:00:32.085Z,101253.94
2022-09-22T06:03:00.139Z,101246.84
2022-09-22T06:05:28.155Z,101101.78
2022-09-22T06:08:00.865Z,101253.91
2022-09-22T06:10:29.211Z,101222.91
2022-09-22T06:13:00.545Z,101248.53
2022-09-22T06:15:31.337Z,101256.47
2022-09-22T06:17:59.371Z,101247.63
2022-09-22T06:20:27.322Z,101234.34
2022-09-22T06:22:56.601Z,101146.78
2022-09-22T06:25:25.099Z,101229.00
2022-09-22T06:28:02.025Z,101244.06
2022-09-22T06:30:31.843Z,101051.38
2022-09-22T06:33:00.015Z,101253.84
2022-09-22T06:35:31.387Z,101232.56
2022-09-22T06:37:59.998Z,101251.16
2022-09-22T06:40:28.934Z,101244.03
2022-09-22T06:43:10.513Z,101247.50
2022-09-22T06:45:40.020Z,101188.22
2022-09-22T06:48:10.446Z,101150.28
2022-09-22T06:50:41.098Z,101207.59
2022-09-22T06:53:12.428Z,101160.75
2022-09-22T06:55:43.203Z,101240.19
2022-09-22T06:58:11.559Z,101210.09
2022-09-22T07:00:42.935Z,101239.13
2022-09-22T07:03:17.753Z,101129.44
2022-09-22T07:05:54.835Z,101245.16
2022-09-22T07:08:23.183Z,101247.91
2022-09-22T07:10:56.280Z,101241.50
2022-09-22T07:13:24.403Z,101242.84
2022-09-22T07:15:55.402Z,101245.59
2022-09-22T07:18:23.352Z,101247.13
2022-09-22T07:20:51.246Z,101246.13
2022-09-22T07:23:21.262Z,101242.44
2022-09-22T07:25:57.016Z,101170.75
2022-09-22T07:28:25.906Z,101226.47
2022-09-22T07:30:57.469Z,101241.41
2022-09-22T07:33:25.517Z,101229.41
2022-09-22T07:36:01.971Z,101241.41
2022-09-22T07:38:36.302Z,101244.72
2022-09-22T07:41:06.715Z,101237.53
2022-09-22T07:43:35.252Z,101239.25
2022-09-22T07:46:05.019Z,101234.41
2022-09-22T07:48:42.933Z,101237.16
2022-09-22T07:51:16.505Z,101229.81
2022-09-22T07:53:46.072Z,101234.78
2022-09-22T07:56:15.447Z,101234.78
2022-09-22T07:58:45.945Z,101233.19
2022-09-22T08:01:15.446Z,101209.56
2022-09-22T08:03:44.177Z,101237.47
2022-09-22T08:06:12.241Z,101231.84
2022-09-22T08:08:42.147Z,101208.34
2022-09-22T08:11:13.614Z,101208.94
2022-09-22T08:13:42.602Z,101242.09
2022-09-22T08:16:11.586Z,101208.00
2022-09-22T08:18:41.320Z,101235.66
2022-09-22T08:21:09.255Z,101236.13
2022-09-22T08:23:38.114Z,101231.56
2022-09-22T08:26:07.147Z,101227.41
2022-09-22T08:28:36.193Z,101227.06
2022-09-22T08:31:04.744Z,101217.94
2022-09-22T08:33:32.724Z,101212.22
2022-09-22T08:36:03.648Z,101227.03
2022-09-22T08:38:34.061Z,101229.34
2022-09-22T08:41:05.875Z,101217.94
2022-09-22T08:43:34.047Z,101220.97
2022-09-22T08:46:05.723Z,101216.22
2022-09-22T08:48:52.091Z,101173.88
2022-09-22T08:51:46.259Z,101217.94
2022-09-22T08:54:14.030Z,101204.50
2022-09-22T08:56:45.739Z,101196.00
2022-09-22T08:59:18.887Z,101216.03
2022-09-22T09:02:14.619Z,101217.41
2022-09-22T09:05:01.348Z,101206.41
2022-09-22T09:07:43.212Z,101201.03
2022-09-22T09:10:32.866Z,101217.38
2022-09-22T09:13:13.054Z,101213.91
2022-09-22T09:15:47.172Z,101211.13
2022-09-22T09:18:17.583Z,101148.56
2022-09-22T09:20:46.323Z,101217.75
2022-09-22T09:23:19.302Z,101183.44
2022-09-22T09:25:51.998Z,101200.94
2022-09-22T09:28:27.857Z,101209.31
2022-09-22T09:31:07.624Z,101187.19
2022-09-22T09:33:43.933Z,101208.03
2022-09-22T09:38:52.048Z,101147.09
2022-09-22T09:41:24.178Z,101189.84
2022-09-22T09:43:54.428Z,101207.72
2022-09-22T09:46:34.981Z,101199.84
2022-09-22T09:49:08.145Z,101189.63
2022-09-22T09:51:39.664Z,101206.25
2022-09-22T09:54:17.045Z,101197.31
2022-09-22T09:57:06.262Z,101200.50
2022-09-22T09:59:52.727Z,101195.56
2022-09-22T10:02:23.853Z,101194.75
2022-09-22T10:04:54.073Z,101181.25
2022-09-22T10:07:24.615Z,101097.34
2022-09-22T10:09:56.115Z,101199.63
2022-09-22T10:12:27.531Z,101177.84
2022-09-22T10:14:57.350Z,101178.72
2022-09-22T10:17:29.557Z,101175.13
2022-09-22T10:20:18.735Z,101178.81
2022-09-22T10:22:46.687Z,101164.22
2022-09-22T10:25:24.434Z,101172.34
2022-09-22T10:28:04.097Z,101157.34
2022-09-22T10:30:33.277Z,101114.84
2022-09-22T10:33:14.436Z,101088.53
2022-09-22T10:35:44.449Z,101143.47
2022-09-22T10:38:20.971Z,101158.44
2022-09-22T10:40:56.900Z,101148.69
2022-09-22T10:43:40.922Z,101143.25
2022-09-22T10:46:32.523Z,101134.63
2022-09-22T10:49:10.401Z,100917.66
2022-09-22T10:51:55.011Z,101103.25
2022-09-22T10:54:43.561Z,101144.66
2022-09-22T10:57:24.764Z,101127.50
2022-09-22T11:00:15.152Z,101136.84
2022-09-22T11:03:17.582Z,101125.09
2022-09-22T11:06:13.548Z,101121.38
2022-09-22T11:09:07.401Z,101130.91
2022-09-22T11:12:01.168Z,101103.34
2022-09-22T11:14:43.458Z,101136.06
2022-09-22T11:17:29.083Z,100962.59
2022-09-22T11:20:23.224Z,101129.50
2022-09-22T11:23:11.633Z,101113.03
2022-09-22T11:25:51.731Z,101098.69
2022-09-22T11:28:34.835Z,101096.94
2022-09-22T11:31:04.587Z,101071.16
2022-09-22T11:33:50.613Z,101109.06
2022-09-22T11:36:39.615Z,101115.34
2022-09-22T11:39:19.864Z,101102.31
2022-09-22T11:41:51.247Z,101104.69
2022-09-22T11:44:33.817Z,101104.84
2022-09-22T11:47:31.534Z,101100.00
2022-09-22T11:50:36.540Z,101101.78
2022-09-22T11:53:34.213Z,101104.16
2022-09-22T11:56:16.655Z,100988.28
2022-09-22T11:58:46.040Z,101069.22
2022-09-22T12:01:19.334Z,101099.84
2022-09-22T12:03:54.526Z,101098.41
2022-09-22T12:06:27.032Z,101053.88
2022-09-22T12:09:01.191Z,101055.38
2022-09-22T12:11:30.676Z,101062.88
2022-09-22T12:14:00.279Z,101076.66
2022-09-22T12:16:41.822Z,101067.75
2022-09-22T12:19:24.455Z,101050.88
2022-09-22T12:21:58.902Z,101033.34
2022-09-22T12:24:27.034Z,100935.53
2022-09-22T12:26:55.260Z,100829.41
2022-09-22T12:29:27.572Z,101034.22
2022-09-22T12:31:57.857Z,101000.66
2022-09-22T12:34:27.941Z,101061.47
2022-09-22T12:36:59.448Z,101049.66
2022-09-22T12:39:31.115Z,101058.22
2022-09-22T12:42:01.200Z,101054.28
2022-09-22T12:44:33.396Z,101017.13
2022-09-22T12:47:05.453Z,101052.47
2022-09-22T12:49:35.119Z,101000.47
2022-09-22T12:52:03.335Z,101047.13
2022-09-22T12:54:40.446Z,101044.34
2022-09-22T12:57:29.244Z,101050.38
2022-09-22T13:00:20.654Z,101051.72
2022-09-22T13:02:49.888Z,101037.53
2022-09-22T13:05:46.541Z,101044.28
2022-09-22T13:08:23.901Z,100923.28
2022-09-22T13:11:01.717Z,100830.84
2022-09-22T13:13:46.764Z,100944.66
2022-09-22T13:16:35.594Z,101034.41
2022-09-22T13:19:05.713Z,100997.41
2022-09-22T13:21:35.672Z,101032.03
2022-09-22T13:24:07.499Z,101028.06
2022-09-22T13:26:37.516Z,100970.31
2022-09-22T13:29:11.600Z,100941.91
2022-09-22T13:31:42.876Z,101029.75
2022-09-22T13:34:22.335Z,101005.19
2022-09-22T13:36:54.278Z,101010.25
2022-09-22T13:39:24.994Z,101009.22
2022-09-22T13:41:57.017Z,100891.44
2022-09-22T13:44:30.060Z,101002.69
2022-09-22T13:47:00.035Z,101003.00
2022-09-22T13:49:36.983Z,100993.22
2022-09-22T13:52:09.867Z,100990.34
2022-09-22T13:54:39.477Z,100881.25
2022-09-22T13:57:19.352Z,101000.69
2022-09-22T13:59:48.074Z,100981.59
2022-09-22T14:02:22.104Z,100965.25
2022-09-22T14:04:52.436Z,100995.41
2022-09-22T14:07:23.219Z,100995.53
2022-09-22T14:09:51.715Z,100965.25
2022-09-22T14:12:21.179Z,100981.13
2022-09-22T14:14:49.151Z,100979.41
2022-09-22T14:17:21.881Z,100950.69
2022-09-22T14:19:57.524Z,100869.59
2022-09-22T14:22:28.781Z,100837.25
2022-09-22T14:24:58.869Z,100953.44
2022-09-22T14:27:32.289Z,100977.09
2022-09-22T14:30:00.985Z,100860.38
2022-09-22T14:32:36.155Z,100914.59
2022-09-22T14:35:07.427Z,100894.19
2022-09-22T14:37:39.400Z,100851.50
2022-09-22T14:40:15.634Z,100834.97
2022-09-22T14:42:43.835Z,100900.56
2022-09-22T14:45:21.167Z,100934.03
2022-09-22T14:48:19.335Z,100950.94
2022-09-22T14:50:49.865Z,100955.34
2022-09-22T14:53:22.957Z,100954.63
2022-09-22T14:55:54.652Z,100925.28
2022-09-22T14:58:25.350Z,100906.84
2022-09-22T15:01:14.726Z,100941.38
2022-09-22T15:03:46.591Z,100942.50
2022-09-22T15:06:16.288Z,100938.84
2022-09-22T15:08:51.227Z,100944.72
2022-09-22T15:11:19.918Z,100940.19
2022-09-22T15:13:50.884Z,100929.78
2022-09-22T15:16:43.614Z,100919.53
2022-09-22T15:19:13.207Z,100927.88
2022-09-22T15:21:47.994Z,100890.28
2022-09-22T15:24:26.821Z,100781.28
2022-09-22T15:26:57.689Z,100888.34
2022-09-22T15:29:26.341Z,100922.00
2022-09-22T15:31:55.979Z,100908.16
2022-09-22T15:34:23.989Z,100824.19
2022-09-22T15:36:55.943Z,100921.44
2022-09-22T15:39:26.057Z,100911.81
2022-09-22T15:41:54.988Z,100915.63
2022-09-22T15:44:22.919Z,100733.53
2022-09-22T15:46:54.186Z,100671.47
2022-09-22T15:49:26.282Z,100876.78
2022-09-22T15:51:56.224Z,100872.19
2022-09-22T15:54:26.906Z,100897.50
2022-09-22T15:56:57.013Z,100903.09
2022-09-22T15:59:28.283Z,100885.13
2022-09-22T16:01:57.420Z,100690.19
2022-09-22T16:04:33.054Z,100795.38
2022-09-22T16:07:04.132Z,100897.53
2022-09-22T16:09:33.792Z,100880.34
2022-09-22T16:12:03.415Z,100795.75
2022-09-22T16:14:31.341Z,100677.25
2022-09-22T16:16:59.343Z,100883.44
2022-09-22T16:19:28.368Z,100884.69
2022-09-22T16:21:56.280Z,100838.72
2022-09-22T16:24:26.425Z,100847.75
2022-09-22T16:26:56.560Z,100873.50
2022-09-22T16:29:25.083Z,100874.09
2022-09-22T16:31:53.229Z,100876.50
2022-09-22T16:34:21.188Z,100733.16
2022-09-22T16:36:49.192Z,100881.16
2022-09-22T16:39:17.282Z,100870.94
2022-09-22T16:41:46.577Z,100875.25
2022-09-22T16:44:16.849Z,100712.59
2022-09-22T16:46:44.674Z,100870.91
2022-09-22T16:49:16.260Z,100867.28
2022-09-22T16:51:46.855Z,100875.47
2022-09-22T16:54:14.982Z,100812.81
2022-09-22T16:56:44.446Z,100875.56
2022-09-22T16:59:15.234Z,100877.31
2022-09-22T17:01:44.871Z,100882.22
2022-09-22T17:04:15.818Z,100872.44
2022-09-22T17:06:44.508Z,100870.75
2022-09-22T17:09:14.063Z,100759.75
2022-09-22T17:11:43.831Z,100884.69
2022-09-22T17:14:13.625Z,100868.41
2022-09-22T17:16:42.881Z,100877.78
2022-09-22T17:19:18.325Z,100843.66
2022-09-22T17:21:47.964Z,100868.69
2022-09-22T17:24:16.564Z,100879.53
2022-09-22T17:26:47.864Z,100872.19
2022-09-22T17:29:17.017Z,100879.00
2022-09-22T17:31:47.240Z,100870.59
2022-09-22T17:34:17.276Z,100872.16
2022-09-22T17:36:45.615Z,100814.00
2022-09-22T17:39:14.099Z,100740.09
2022-09-22T17:41:45.493Z,100864.25
2022-09-22T17:44:14.769Z,100845.28
2022-09-22T17:47:02.700Z,100839.50
2022-09-22T17:49:49.393Z,100848.66
2022-09-22T17:52:35.537Z,100870.09
2022-09-22T17:55:08.076Z,100875.59
2022-09-22T17:57:37.887Z,100875.69
2022-09-22T18:00:08.420Z,100869.09
2022-09-22T18:02:38.860Z,100878.28
2022-09-22T18:05:11.303Z,100791.72
2022-09-22T18:07:40.495Z,100874.25
2022-09-22T18:10:10.479Z,100850.63
2022-09-22T18:12:38.973Z,100874.25
2022-09-22T18:15:08.358Z,100875.88
2022-09-22T18:17:41.320Z,100872.31
2022-09-22T18:20:12.531Z,100850.69
2022-09-22T18:22:41.378Z,100870.16
2022-09-22T18:25:10.837Z,100860.81
2022-09-22T18:27:40.237Z,100876.75
2022-09-22T18:30:11.337Z,100874.28
2022-09-22T18:32:41.336Z,100767.22
2022-09-22T18:35:11.231Z,100831.56
2022-09-22T18:37:39.324Z,100757.13
2022-09-22T18:40:08.737Z,100822.50
2022-09-22T18:42:37.110Z,100750.84
2022-09-22T18:45:05.592Z,100879.25
2022-09-22T18:47:39.677Z,100875.69
2022-09-22T18:50:08.683Z,100810.03
2022-09-22T18:52:42.620Z,100797.00
2022-09-22T18:55:18.801Z,100875.84
2022-09-22T18:57:48.421Z,100885.56
2022-09-22T19:00:21.172Z,100884.16
2022-09-22T19:02:50.321Z,100907.63
2022-09-22T19:05:18.908Z,100866.03
2022-09-22T19:07:48.518Z,100892.59
2022-09-22T19:10:22.211Z,100863.66
2022-09-22T19:12:50.775Z,100892.00
2022-09-22T19:15:19.945Z,100856.69
2022-09-22T19:17:49.874Z,100889.56
2022-09-22T19:20:20.967Z,100676.34
2022-09-22T19:22:52.432Z,100889.13
2022-09-22T19:25:21.619Z,100880.44
2022-09-22T19:27:50.359Z,100887.50
2022-09-22T19:30:22.875Z,100857.72
2022-09-22T19:32:52.714Z,100802.41
2022-09-22T19:35:20.717Z,100886.75
2022-09-22T19:37:51.993Z,100882.34
2022-09-22T19:40:20.827Z,100884.16
2022-09-22T19:42:49.863Z,100879.69
2022-09-22T19:45:18.601Z,100888.66
2022-09-22T19:47:48.139Z,100852.78
2022-09-22T19:50:16.541Z,100880.88
2022-09-22T19:52:44.613Z,100880.09
2022-09-22T19:55:16.071Z,100879.16
2022-09-22T19:57:48.837Z,100846.69
2022-09-22T20:00:25.630Z,100878.38
2022-09-22T20:02:58.620Z,100648.38
2022-09-22T20:05:29.362Z,100881.25
2022-09-22T20:07:56.986Z,100877.88
2022-09-22T20:10:26.592Z,100863.97
2022-09-22T20:12:55.283Z,100883.25
2022-09-22T20:15:23.331Z,100848.09
2022-09-22T20:17:51.399Z,100879.91
2022-09-22T20:20:21.708Z,100879.03
2022-09-22T20:22:53.112Z,100872.94
2022-09-22T20:25:24.937Z,100856.25
2022-09-22T20:27:56.194Z,100872.25
2022-09-22T20:30:24.407Z,100875.06
2022-09-22T20:32:52.620Z,100731.78
2022-09-22T20:35:22.111Z,100725.69
2022-09-22T20:37:51.704Z,100866.38
2022-09-22T20:40:22.073Z,100745.88
2022-09-22T20:42:51.385Z,100823.22
2022-09-22T20:45:23.021Z,100861.22
2022-09-22T20:47:51.131Z,100866.50
2022-09-22T20:50:19.650Z,100866.50
2022-09-22T20:52:47.896Z,100725.84
2022-09-22T20:55:16.258Z,100869.31
2022-09-22T20:57:44.272Z,100866.63
2022-09-22T21:00:15.384Z,100865.88
2022-09-22T21:02:45.107Z,100736.75
2022-09-22T21:05:13.253Z,100840.38
2022-09-22T21:07:41.674Z,100866.88
2022-09-22T21:10:28.106Z,100837.97
2022-09-22T21:12:56.368Z,100870.69
2022-09-22T21:15:24.583Z,100862.75
2022-09-22T21:17:54.118Z,100623.75
2022-09-22T21:20:22.632Z,100864.81
2022-09-22T21:22:51.196Z,100864.09
2022-09-22T21:25:20.180Z,100864.22
2022-09-22T21:27:48.321Z,100866.69
2022-09-22T21:30:16.561Z,100865.03
2022-09-22T21:32:44.707Z,100866.06
2022-09-22T21:35:16.745Z,100867.13
2022-09-22T21:37:45.140Z,100839.59
2022-09-22T21:40:13.882Z,100830.50
2022-09-22T21:42:42.081Z,100855.91
2022-09-22T21:45:10.933Z,100848.59
2022-09-22T21:47:38.870Z,100853.31
2022-09-22T21:50:07.901Z,100801.31
2022-09-22T21:52:38.489Z,100831.44
2022-09-22T21:55:07.732Z,100777.75
2022-09-22T21:57:35.737Z,100826.25
2022-09-22T22:00:05.106Z,100828.06
2022-09-22T22:02:53.771Z,100772.72
2022-09-22T22:05:21.875Z,100838.81
2022-09-22T22:07:51.115Z,100828.19
2022-09-22T22:10:19.240Z,100736.75
2022-09-22T22:12:47.199Z,100829.38
2022-09-22T22:15:15.571Z,100831.09
2022-09-22T22:17:43.460Z,100700.84
2022-09-22T22:20:11.443Z,100830.16
2022-09-22T22:22:39.508Z,100827.56
2022-09-22T22:25:13.952Z,100824.94
2022-09-22T22:27:45.076Z,100824.13
2022-09-22T22:30:14.401Z,100796.81
2022-09-22T22:32:42.407Z,100741.41
2022-09-22T22:35:11.758Z,100694.88
2022-09-22T22:37:40.129Z,100656.28
2022-09-22T22:40:10.729Z,100797.16
2022-09-22T22:42:38.680Z,100763.50
2022-09-22T22:45:07.281Z,100799.63
2022-09-22T22:47:35.202Z,100808.41
2022-09-22T22:50:03.223Z,100810.19
2022-09-22T22:52:31.358Z,100814.59
2022-09-22T22:54:59.347Z,100811.06
2022-09-22T22:57:29.095Z,100792.75
2022-09-22T22:59:57.336Z,100814.72
2022-09-22T23:02:25.683Z,100785.78
2022-09-22T23:04:54.436Z,100815.69
2022-09-22T23:07:22.617Z,100761.22
2022-09-22T23:10:06.291Z,100808.81
2022-09-22T23:12:37.155Z,100773.66
2022-09-22T23:15:05.910Z,100767.44
2022-09-22T23:17:34.392Z,100792.16
2022-09-22T23:20:03.281Z,100806.19
2022-09-22T23:22:31.675Z,100757.66
2022-09-22T23:25:00.189Z,100769.19
2022-09-22T23:27:29.266Z,100794.72
2022-09-22T23:29:59.037Z,100720.09
2022-09-22T23:32:27.050Z,100790.47
2022-09-22T23:34:55.298Z,100799.22
2022-09-22T23:37:24.747Z,100806.47
2022-09-22T23:39:53.278Z,100789.56
2022-09-22T23:42:21.166Z,100733.28
2022-09-22T23:44:49.240Z,100742.13
2022-09-22T23:47:18.852Z,100622.53
2022-09-22T23:49:46.914Z,100655.94
2022-09-22T23:52:14.813Z,100676.34
2022-09-22T23:54:42.746Z,100777.28
2022-09-22T23:57:10.713Z,100783.56
2022-09-22T23:59:38.597Z,100762.50
